createdAt,value
2017-06-12T00:00:31.580Z,1004.52
2017-06-12T00:01:31.571Z,1004.51
2017-06-12T00:02:31.562Z,1004.53
2017-06-12T00:03:31.552Z,1004.55
2017-06-12T00:04:31.545Z,1004.63
2017-06-12T00:05:31.535Z,1004.48
2017-06-12T00:06:31.523Z,1004.46
2017-06-12T00:07:31.514Z,1004.46
2017-06-12T00:08:31.505Z,1004.41
2017-06-12T00:09:31.496Z,1004.42
2017-06-12T00:10:31.486Z,1004.41
2017-06-12T00:11:31.474Z,1004.46
2017-06-12T00:12:31.466Z,1004.41
2017-06-12T00:13:31.456Z,1004.43
2017-06-12T00:14:31.447Z,1004.53
2017-06-12T00:15:31.437Z,1004.51
2017-06-12T00:16:31.428Z,1004.53
2017-06-12T00:17:31.418Z,1004.53
2017-06-12T00:18:31.407Z,1004.5
2017-06-12T00:19:31.398Z,1004.51
2017-06-12T00:20:31.388Z,1004.46
2017-06-12T00:21:31.378Z,1004.39
2017-06-12T00:22:31.368Z,1004.49
2017-06-12T00:23:31.361Z,1004.42
2017-06-12T00:24:31.349Z,1004.44
2017-06-12T00:25:31.338Z,1004.46
2017-06-12T00:26:31.329Z,1004.47
2017-06-12T00:27:31.319Z,1004.47
2017-06-12T00:28:31.311Z,1004.55
2017-06-12T00:29:31.299Z,1004.56
2017-06-12T00:30:31.291Z,1004.59
2017-06-12T00:31:31.279Z,1004.57
2017-06-12T00:32:31.271Z,1004.55
2017-06-12T00:33:31.259Z,1004.51
2017-06-12T00:34:31.249Z,1004.53
2017-06-12T00:35:31.291Z,1004.48
2017-06-12T00:36:31.233Z,1004.48
2017-06-12T00:37:31.220Z,1004.46
2017-06-12T00:38:31.210Z,1004.49
2017-06-12T00:39:31.200Z,1004.51
2017-06-12T00:40:31.190Z,1004.56
2017-06-12T00:41:31.180Z,1004.57
2017-06-12T00:42:31.170Z,1004.66
2017-06-12T00:43:31.182Z,1004.72
2017-06-12T00:44:31.150Z,1004.66
2017-06-12T00:45:31.141Z,1004.62
2017-06-12T00:46:31.132Z,1004.64
2017-06-12T00:47:31.122Z,1004.71
2017-06-12T00:48:31.112Z,1004.68
2017-06-12T00:49:31.101Z,1004.69
2017-06-12T00:50:31.092Z,1004.61
2017-06-12T00:51:31.083Z,1004.58
2017-06-12T00:52:31.072Z,1004.62
2017-06-12T00:53:31.062Z,1004.66
2017-06-12T00:54:31.057Z,1004.67
2017-06-12T00:55:31.041Z,1004.68
2017-06-12T00:56:31.032Z,1004.69
2017-06-12T00:57:31.024Z,1004.66
2017-06-12T00:58:31.015Z,1004.74
2017-06-12T00:59:31.004Z,1004.69
2017-06-12T01:00:30.994Z,1004.75
2017-06-12T01:01:30.986Z,1004.7
2017-06-12T01:02:30.975Z,1004.68
2017-06-12T01:03:30.964Z,1004.65
2017-06-12T01:04:30.955Z,1004.67
2017-06-12T01:05:30.945Z,1004.62
2017-06-12T01:06:30.934Z,1004.66
2017-06-12T01:07:30.925Z,1004.56
2017-06-12T01:08:30.916Z,1004.65
2017-06-12T01:09:30.905Z,1004.54
2017-06-12T01:10:30.893Z,1004.55
2017-06-12T01:11:30.885Z,1004.52
2017-06-12T01:12:30.875Z,1004.55
2017-06-12T01:13:30.866Z,1004.58
2017-06-12T01:14:30.853Z,1004.58
2017-06-12T01:15:30.848Z,1004.62
2017-06-12T01:16:30.836Z,1004.56
2017-06-12T01:17:30.825Z,1004.59
2017-06-12T01:18:31.017Z,1004.61
2017-06-12T01:19:30.807Z,1004.68
2017-06-12T01:20:30.796Z,1004.63
2017-06-12T01:21:30.785Z,1004.65
2017-06-12T01:22:30.777Z,1004.66
2017-06-12T01:23:30.766Z,1004.74
2017-06-12T01:24:30.756Z,1004.74
2017-06-12T01:25:30.748Z,1004.73
2017-06-12T01:26:30.737Z,1004.76
2017-06-12T01:27:30.729Z,1004.75
2017-06-12T01:28:30.717Z,1004.79
2017-06-12T01:29:30.711Z,1004.71
2017-06-12T01:30:30.695Z,1004.66
2017-06-12T01:31:30.688Z,1004.67
2017-06-12T01:32:30.678Z,1004.67
2017-06-12T01:33:30.666Z,1004.77
2017-06-12T01:34:30.657Z,1004.81
2017-06-12T01:35:30.647Z,1004.82
2017-06-12T01:36:30.636Z,1004.86
2017-06-12T01:37:30.628Z,1004.9
2017-06-12T01:38:30.617Z,1004.91
2017-06-12T01:39:30.606Z,1004.85
2017-06-12T01:40:30.598Z,1004.89
2017-06-12T01:41:30.610Z,1004.91
2017-06-12T01:42:30.578Z,1004.91
2017-06-12T01:43:30.566Z,1004.97
2017-06-12T01:44:30.557Z,1004.88
2017-06-12T01:45:30.551Z,1004.9
2017-06-12T01:46:30.536Z,1004.86
2017-06-12T01:47:30.527Z,1004.82
2017-06-12T01:48:30.517Z,1004.89
2017-06-12T01:49:30.506Z,1004.86
2017-06-12T01:50:30.499Z,1004.89
2017-06-12T01:51:30.486Z,1004.94
2017-06-12T01:52:30.478Z,1004.95
2017-06-12T01:53:30.467Z,1004.93
2017-06-12T01:54:30.457Z,1004.92
2017-06-12T01:55:30.447Z,1004.89
2017-06-12T01:56:30.437Z,1004.93
2017-06-12T01:57:30.426Z,1005
2017-06-12T01:58:30.418Z,1004.97
2017-06-12T01:59:30.408Z,1004.94
2017-06-12T02:00:30.396Z,1004.94
2017-06-12T02:01:30.386Z,1004.9
2017-06-12T02:02:30.377Z,1004.86
2017-06-12T02:03:30.421Z,1004.88
2017-06-12T02:04:30.358Z,1004.91
2017-06-12T02:05:30.349Z,1005.01
2017-06-12T02:06:30.336Z,1005.01
2017-06-12T02:07:30.327Z,1004.92
2017-06-12T02:08:30.315Z,1004.88
2017-06-12T02:09:30.310Z,1004.88
2017-06-12T02:10:30.295Z,1004.88
2017-06-12T02:11:30.288Z,1004.85
2017-06-12T02:12:30.275Z,1004.86
2017-06-12T02:13:30.264Z,1004.88
2017-06-12T02:14:30.255Z,1004.85
2017-06-12T02:15:30.246Z,1004.93
2017-06-12T02:16:30.234Z,1004.92
2017-06-12T02:17:30.226Z,1004.86
2017-06-12T02:18:30.215Z,1004.92
2017-06-12T02:19:30.205Z,1004.9
2017-06-12T02:20:30.194Z,1004.94
2017-06-12T02:21:30.189Z,1004.96
2017-06-12T02:22:30.176Z,1004.95
2017-06-12T02:23:30.166Z,1004.96
2017-06-12T02:24:30.154Z,1004.99
2017-06-12T02:25:30.146Z,1005.03
2017-06-12T02:26:30.135Z,1005.03
2017-06-12T02:27:30.350Z,1005.07
2017-06-12T02:28:30.116Z,1005.05
2017-06-12T02:29:30.104Z,1005.05
2017-06-12T02:30:30.096Z,1005.12
2017-06-12T02:31:30.085Z,1005.14
2017-06-12T02:32:30.076Z,1005.11
2017-06-12T02:33:30.063Z,1005.07
2017-06-12T02:34:30.069Z,1005.07
2017-06-12T02:35:30.043Z,1005.15
2017-06-12T02:36:30.033Z,1005.16
2017-06-12T02:37:30.023Z,1005.09
2017-06-12T02:38:30.012Z,1005.04
2017-06-12T02:39:30.002Z,1005.03
2017-06-12T02:40:29.992Z,1005.02
2017-06-12T02:41:29.980Z,1005.04
2017-06-12T02:42:29.972Z,1005.04
2017-06-12T02:43:29.964Z,1005.1
2017-06-12T02:44:29.951Z,1005.11
2017-06-12T02:45:29.943Z,1005.09
2017-06-12T02:46:29.930Z,1005.09
2017-06-12T02:47:29.919Z,1005.11
2017-06-12T02:48:29.910Z,1005.13
2017-06-12T02:49:29.900Z,1005.11
2017-06-12T02:50:29.889Z,1005.12
2017-06-12T02:51:29.880Z,1005.13
2017-06-12T02:52:29.868Z,1005.14
2017-06-12T02:53:29.860Z,1005.21
2017-06-12T02:54:29.851Z,1005.27
2017-06-12T02:55:29.837Z,1005.27
2017-06-12T02:56:29.826Z,1005.23
2017-06-12T02:57:29.816Z,1005.21
2017-06-12T02:58:29.807Z,1005.25
2017-06-12T02:59:29.798Z,1005.24
2017-06-12T03:00:29.786Z,1005.22
2017-06-12T03:01:29.775Z,1005.17
2017-06-12T03:02:29.764Z,1005.19
2017-06-12T03:03:29.754Z,1005.22
2017-06-12T03:04:29.743Z,1005.19
2017-06-12T03:05:29.731Z,1005.19
2017-06-12T03:06:29.724Z,1005.17
2017-06-12T03:07:29.711Z,1005.19
2017-06-12T03:08:29.703Z,1005.24
2017-06-12T03:09:29.690Z,1005.26
2017-06-12T03:10:29.679Z,1005.28
2017-06-12T03:11:29.670Z,1005.28
2017-06-12T03:12:29.659Z,1005.28
2017-06-12T03:13:29.650Z,1005.27
2017-06-12T03:14:29.637Z,1005.31
2017-06-12T03:15:29.628Z,1005.29
2017-06-12T03:16:29.617Z,1005.25
2017-06-12T03:17:29.606Z,1005.26
2017-06-12T03:18:29.796Z,1005.31
2017-06-12T03:19:29.583Z,1005.27
2017-06-12T03:20:29.572Z,1005.32
2017-06-12T03:21:29.561Z,1005.28
2017-06-12T03:22:29.552Z,1005.31
2017-06-12T03:23:29.540Z,1005.35
2017-06-12T03:24:29.529Z,1005.36
2017-06-12T03:25:29.522Z,1005.37
2017-06-12T03:26:29.507Z,1005.34
2017-06-12T03:27:29.496Z,1005.35
2017-06-12T03:28:29.487Z,1005.35
2017-06-12T03:29:29.474Z,1005.4
2017-06-12T03:30:29.464Z,1005.41
2017-06-12T03:31:29.453Z,1005.4
2017-06-12T03:32:29.442Z,1005.4
2017-06-12T03:33:29.430Z,1005.33
2017-06-12T03:34:29.420Z,1005.3
2017-06-12T03:35:29.408Z,1005.36
2017-06-12T03:36:29.395Z,1005.38
2017-06-12T03:37:29.388Z,1005.41
2017-06-12T03:38:29.375Z,1005.42
2017-06-12T03:39:29.364Z,1005.43
2017-06-12T03:40:29.354Z,1005.41
2017-06-12T03:41:29.344Z,1005.51
2017-06-12T03:42:29.331Z,1005.46
2017-06-12T03:43:29.320Z,1005.45
2017-06-12T03:44:29.308Z,1005.42
2017-06-12T03:45:29.297Z,1005.45
2017-06-12T03:46:29.288Z,1005.46
2017-06-12T03:47:29.276Z,1005.5
2017-06-12T03:48:29.264Z,1005.47
2017-06-12T03:49:29.253Z,1005.45
2017-06-12T03:50:29.242Z,1005.44
2017-06-12T03:51:29.229Z,1005.38
2017-06-12T03:52:29.218Z,1005.46
2017-06-12T03:53:29.209Z,1005.46
2017-06-12T03:54:29.196Z,1005.47
2017-06-12T03:55:29.186Z,1005.49
2017-06-12T03:56:29.174Z,1005.43
2017-06-12T03:57:29.163Z,1005.45
2017-06-12T03:58:29.151Z,1005.48
2017-06-12T03:59:29.140Z,1005.48
2017-06-12T04:00:29.130Z,1005.44
2017-06-12T04:01:29.117Z,1005.41
2017-06-12T04:02:29.108Z,1005.41
2017-06-12T04:03:29.094Z,1005.48
2017-06-12T04:04:29.085Z,1005.46
2017-06-12T04:05:29.071Z,1005.46
2017-06-12T04:06:29.064Z,1005.48
2017-06-12T04:07:29.049Z,1005.55
2017-06-12T04:08:29.039Z,1005.56
2017-06-12T04:09:29.026Z,1005.54
2017-06-12T04:10:29.015Z,1005.54
2017-06-12T04:11:29.002Z,1005.49
2017-06-12T04:12:28.992Z,1005.46
2017-06-12T04:13:28.980Z,1005.5
2017-06-12T04:14:28.969Z,1005.48
2017-06-12T04:15:28.958Z,1005.5
2017-06-12T04:16:28.946Z,1005.55
2017-06-12T04:17:28.933Z,1005.57
2017-06-12T04:18:28.926Z,1005.59
2017-06-12T04:19:28.914Z,1005.56
2017-06-12T04:20:28.900Z,1005.56
2017-06-12T04:21:28.888Z,1005.57
2017-06-12T04:22:28.878Z,1005.55
2017-06-12T04:23:28.866Z,1005.6
2017-06-12T04:24:28.853Z,1005.58
2017-06-12T04:25:28.845Z,1005.61
2017-06-12T04:26:28.831Z,1005.58
2017-06-12T04:27:28.820Z,1005.63
2017-06-12T04:28:28.809Z,1005.65
2017-06-12T04:29:28.796Z,1005.66
2017-06-12T04:30:28.786Z,1005.63
2017-06-12T04:31:28.777Z,1005.63
2017-06-12T04:32:28.762Z,1005.64
2017-06-12T04:33:28.750Z,1005.64
2017-06-12T04:34:28.739Z,1005.66
2017-06-12T04:35:28.729Z,1005.62
2017-06-12T04:36:28.718Z,1005.62
2017-06-12T04:37:28.709Z,1005.65
2017-06-12T04:38:28.692Z,1005.65
2017-06-12T04:39:28.683Z,1005.63
2017-06-12T04:40:28.670Z,1005.64
2017-06-12T04:41:28.661Z,1005.59
2017-06-12T04:42:28.648Z,1005.6
2017-06-12T04:43:28.636Z,1005.59
2017-06-12T04:44:28.624Z,1005.57
2017-06-12T04:45:28.614Z,1005.6
2017-06-12T04:46:28.602Z,1005.53
2017-06-12T04:47:28.591Z,1005.56
2017-06-12T04:48:28.581Z,1005.56
2017-06-12T04:49:28.567Z,1005.58
2017-06-12T04:50:28.556Z,1005.6
2017-06-12T04:51:28.547Z,1005.55
2017-06-12T04:52:28.538Z,1005.47
2017-06-12T04:53:28.522Z,1005.49
2017-06-12T04:54:28.511Z,1005.49
2017-06-12T04:55:28.503Z,1005.49
2017-06-12T04:56:28.489Z,1005.53
2017-06-12T04:57:28.477Z,1005.53
2017-06-12T04:58:28.467Z,1005.59
2017-06-12T04:59:28.457Z,1005.62
2017-06-12T05:00:28.443Z,1005.56
2017-06-12T05:01:28.432Z,1005.59
2017-06-12T05:02:28.422Z,1005.58
2017-06-12T05:03:28.410Z,1005.6
2017-06-12T05:04:28.399Z,1005.57
2017-06-12T05:05:28.388Z,1005.69
2017-06-12T05:06:28.377Z,1005.61
2017-06-12T05:07:28.365Z,1005.59
2017-06-12T05:08:28.354Z,1005.65
2017-06-12T05:09:28.342Z,1005.67
2017-06-12T05:10:28.332Z,1005.63
2017-06-12T05:11:28.320Z,1005.63
2017-06-12T05:12:28.310Z,1005.62
2017-06-12T05:13:28.301Z,1005.66
2017-06-12T05:14:28.287Z,1005.66
2017-06-12T05:15:28.274Z,1005.72
2017-06-12T05:16:28.263Z,1005.71
2017-06-12T05:17:28.253Z,1005.72
2017-06-12T05:18:28.444Z,1005.69
2017-06-12T05:19:28.230Z,1005.67
2017-06-12T05:20:28.220Z,1005.7
2017-06-12T05:21:28.209Z,1005.7
2017-06-12T05:22:28.198Z,1005.69
2017-06-12T05:23:28.186Z,1005.64
2017-06-12T05:24:28.178Z,1005.68
2017-06-12T05:25:28.165Z,1005.77
2017-06-12T05:26:28.153Z,1005.83
2017-06-12T05:27:28.142Z,1005.8
2017-06-12T05:28:28.133Z,1005.81
2017-06-12T05:29:28.120Z,1005.82
2017-06-12T05:30:28.108Z,1005.81
2017-06-12T05:31:28.100Z,1005.76
2017-06-12T05:32:28.090Z,1005.84
2017-06-12T05:33:28.075Z,1005.78
2017-06-12T05:34:28.066Z,1005.86
2017-06-12T05:35:28.209Z,1005.84
2017-06-12T05:36:28.043Z,1005.81
2017-06-12T05:37:28.032Z,1005.86
2017-06-12T05:38:28.024Z,1005.85
2017-06-12T05:39:28.015Z,1005.8
2017-06-12T05:40:28.000Z,1005.83
2017-06-12T05:41:27.990Z,1005.8
2017-06-12T05:42:27.982Z,1005.86
2017-06-12T05:43:27.969Z,1005.84
2017-06-12T05:44:27.957Z,1005.8
2017-06-12T05:45:27.948Z,1005.78
2017-06-12T05:46:27.937Z,1005.82
2017-06-12T05:47:27.926Z,1005.77
2017-06-12T05:48:27.913Z,1005.85
2017-06-12T05:49:27.905Z,1005.81
2017-06-12T05:50:27.893Z,1005.85
2017-06-12T05:51:27.883Z,1005.88
2017-06-12T05:52:27.871Z,1005.9
2017-06-12T05:53:27.860Z,1005.96
2017-06-12T05:54:27.851Z,1005.92
2017-06-12T05:55:27.840Z,1005.91
2017-06-12T05:56:27.830Z,1006.02
2017-06-12T05:57:27.871Z,1005.99
2017-06-12T05:58:27.809Z,1005.98
2017-06-12T05:59:27.796Z,1006.01
2017-06-12T06:00:27.788Z,1006.01
2017-06-12T06:01:27.776Z,1006.08
2017-06-12T06:02:27.766Z,1006.04
2017-06-12T06:03:27.755Z,1006.06
2017-06-12T06:04:27.743Z,1006.02
2017-06-12T06:05:27.733Z,1006.03
2017-06-12T06:06:27.723Z,1006.15
2017-06-12T06:07:27.712Z,1006.09
2017-06-12T06:08:27.705Z,1006.19
2017-06-12T06:09:27.693Z,1006.21
2017-06-12T06:10:27.680Z,1006.1
2017-06-12T06:11:27.670Z,1006.14
2017-06-12T06:12:27.659Z,1006.06
2017-06-12T06:13:27.648Z,1006.08
2017-06-12T06:14:27.642Z,1006.04
2017-06-12T06:15:27.630Z,1006.11
2017-06-12T06:16:27.618Z,1006.12
2017-06-12T06:17:27.607Z,1006.09
2017-06-12T06:18:27.596Z,1006.1
2017-06-12T06:19:27.585Z,1006.13
2017-06-12T06:20:27.576Z,1006.15
2017-06-12T06:21:27.566Z,1006.24
2017-06-12T06:22:27.557Z,1006.17
2017-06-12T06:23:27.546Z,1006.12
2017-06-12T06:24:27.533Z,1006.17
2017-06-12T06:25:27.525Z,1006.19
2017-06-12T06:26:27.515Z,1006.14
2017-06-12T06:27:27.504Z,1006.13
2017-06-12T06:28:27.492Z,1006.11
2017-06-12T06:29:27.484Z,1006.14
2017-06-12T06:30:27.475Z,1006.16
2017-06-12T06:31:27.463Z,1006.14
2017-06-12T06:32:27.462Z,1006.17
2017-06-12T06:33:27.442Z,1006.2
2017-06-12T06:34:27.431Z,1006.18
2017-06-12T06:35:27.421Z,1006.23
2017-06-12T06:36:27.410Z,1006.17
2017-06-12T06:37:27.399Z,1006.19
2017-06-12T06:38:27.389Z,1006.14
2017-06-12T06:39:27.377Z,1006.19
2017-06-12T06:40:27.369Z,1006.14
2017-06-12T06:41:27.357Z,1006.12
2017-06-12T06:42:27.349Z,1006.16
2017-06-12T06:43:27.335Z,1006.16
2017-06-12T06:44:27.326Z,1006.19
2017-06-12T06:45:27.315Z,1006.19
2017-06-12T06:46:27.305Z,1006.22
2017-06-12T06:47:27.298Z,1006.18
2017-06-12T06:48:27.284Z,1006.18
2017-06-12T06:49:27.276Z,1006.2
2017-06-12T06:50:27.266Z,1006.24
2017-06-12T06:51:27.254Z,1006.19
2017-06-12T06:52:27.244Z,1006.21
2017-06-12T06:53:27.232Z,1006.18
2017-06-12T06:54:27.222Z,1006.17
2017-06-12T06:55:27.222Z,1006.18
2017-06-12T06:56:27.204Z,1006.14
2017-06-12T06:57:27.192Z,1006.17
2017-06-12T06:58:27.181Z,1006.19
2017-06-12T06:59:27.173Z,1006.2
2017-06-12T07:00:27.162Z,1006.18
2017-06-12T07:01:27.155Z,1006.25
2017-06-12T07:02:27.143Z,1006.26
2017-06-12T07:03:27.132Z,1006.31
2017-06-12T07:04:27.124Z,1006.16
2017-06-12T07:05:27.113Z,1006.28
2017-06-12T07:06:27.104Z,1006.19
2017-06-12T07:07:27.093Z,1006.25
2017-06-12T07:08:27.084Z,1006.3
2017-06-12T07:09:27.076Z,1006.31
2017-06-12T07:10:27.091Z,1006.41
2017-06-12T07:11:27.056Z,1006.46
2017-06-12T07:12:27.044Z,1006.43
2017-06-12T07:13:27.035Z,1006.25
2017-06-12T07:14:27.030Z,1006.39
2017-06-12T07:15:27.031Z,1006.39
2017-06-12T07:16:27.012Z,1006.35
2017-06-12T07:17:27.014Z,1006.35
2017-06-12T07:18:27.193Z,1006.36
2017-06-12T07:19:26.980Z,1006.63
2017-06-12T07:20:26.974Z,1006.46
2017-06-12T07:21:26.973Z,1006.42
2017-06-12T07:22:26.970Z,1006.35
2017-06-12T07:23:26.950Z,1006.38
2017-06-12T07:24:26.950Z,1006.38
2017-06-12T07:25:26.947Z,1006.38
2017-06-12T07:26:26.943Z,1006.39
2017-06-12T07:27:26.944Z,1006.51
2017-06-12T07:28:26.916Z,1006.37
2017-06-12T07:29:26.891Z,1006.41
2017-06-12T07:30:26.880Z,1006.43
2017-06-12T07:31:26.872Z,1006.49
2017-06-12T07:32:26.863Z,1006.58
2017-06-12T07:33:26.856Z,1006.54
2017-06-12T07:34:26.846Z,1006.54
2017-06-12T07:35:26.838Z,1006.48
2017-06-12T07:36:26.832Z,1006.49
2017-06-12T07:37:26.820Z,1006.57
2017-06-12T07:38:26.811Z,1006.55
2017-06-12T07:39:26.803Z,1006.57
2017-06-12T07:40:26.794Z,1006.66
2017-06-12T07:41:26.786Z,1006.73
2017-06-12T07:42:26.820Z,1006.55
2017-06-12T07:43:26.769Z,1006.67
2017-06-12T07:44:26.761Z,1006.55
2017-06-12T07:45:26.752Z,1006.56
2017-06-12T07:46:26.745Z,1006.45
2017-06-12T07:47:26.742Z,1006.42
2017-06-12T07:48:26.762Z,1006.45
2017-06-12T07:49:26.720Z,1006.46
2017-06-12T07:50:26.713Z,1006.75
2017-06-12T07:51:26.705Z,1006.75
2017-06-12T07:52:26.697Z,1006.79
2017-06-12T07:53:26.690Z,1006.48
2017-06-12T07:54:26.683Z,1006.45
2017-06-12T07:55:26.675Z,1006.53
2017-06-12T07:56:26.670Z,1006.45
2017-06-12T07:57:26.665Z,1006.75
2017-06-12T07:58:26.657Z,1006.59
2017-06-12T07:59:26.649Z,1006.77
2017-06-12T08:00:26.645Z,1006.83
2017-06-12T08:01:26.638Z,1006.84
2017-06-12T08:02:26.632Z,1006.88
2017-06-12T08:03:26.630Z,1006.93
2017-06-12T08:04:26.622Z,1006.88
2017-06-12T08:05:26.615Z,1006.65
2017-06-12T08:06:26.609Z,1006.79
2017-06-12T08:07:26.604Z,1006.55
2017-06-12T08:08:26.603Z,1006.83
2017-06-12T08:09:26.596Z,1006.6
2017-06-12T08:10:26.591Z,1006.72
2017-06-12T08:11:26.586Z,1006.78
2017-06-12T08:12:26.584Z,1006.7
2017-06-12T08:13:26.579Z,1006.65
2017-06-12T08:14:26.573Z,1006.88
2017-06-12T08:15:26.568Z,1006.71
2017-06-12T08:16:26.565Z,1006.6
2017-06-12T08:17:26.558Z,1006.98
2017-06-12T08:18:26.554Z,1006.66
2017-06-12T08:19:26.549Z,1006.74
2017-06-12T08:20:26.547Z,1006.64
2017-06-12T08:21:26.540Z,1006.69
2017-06-12T08:22:26.536Z,1006.72
2017-06-12T08:23:26.530Z,1006.62
2017-06-12T08:24:26.530Z,1006.99
2017-06-12T08:25:26.518Z,1006.83
2017-06-12T08:26:26.515Z,1006.63
2017-06-12T08:27:26.509Z,1006.59
2017-06-12T08:28:26.503Z,1006.71
2017-06-12T08:29:26.499Z,1006.89
2017-06-12T08:30:26.493Z,1006.59
2017-06-12T08:31:26.487Z,1006.98
2017-06-12T08:32:26.480Z,1006.99
2017-06-12T08:33:26.476Z,1006.97
2017-06-12T08:34:26.470Z,1007.06
2017-06-12T08:35:26.466Z,1007.22
2017-06-12T08:36:26.459Z,1007.04
2017-06-12T08:37:26.456Z,1007.18
2017-06-12T08:38:26.454Z,1007.15
2017-06-12T08:39:26.447Z,1007.24
2017-06-12T08:40:26.443Z,1006.79
2017-06-12T08:41:26.442Z,1007.22
2017-06-12T08:42:26.435Z,1007.22
2017-06-12T08:43:26.433Z,1006.78
2017-06-12T08:44:26.430Z,1006.75
2017-06-12T08:45:26.426Z,1006.79
2017-06-12T08:46:26.424Z,1006.82
2017-06-12T08:47:26.420Z,1006.76
2017-06-12T08:48:26.414Z,1007
2017-06-12T08:49:26.413Z,1007.02
2017-06-12T08:50:26.407Z,1006.87
2017-06-12T08:51:26.404Z,1006.79
2017-06-12T08:52:26.399Z,1006.79
2017-06-12T08:53:26.397Z,1006.74
2017-06-12T08:54:26.390Z,1006.81
2017-06-12T08:55:26.387Z,1006.76
2017-06-12T08:56:26.383Z,1006.87
2017-06-12T08:57:26.380Z,1007.02
2017-06-12T08:58:26.371Z,1007.08
2017-06-12T08:59:26.370Z,1007.1
2017-06-12T09:00:26.362Z,1006.97
2017-06-12T09:01:26.357Z,1006.94
2017-06-12T09:02:26.352Z,1007.01
2017-06-12T09:03:26.345Z,1007.07
2017-06-12T09:04:26.341Z,1007.28
2017-06-12T09:05:26.334Z,1007.69
2017-06-12T09:06:26.328Z,1007.27
2017-06-12T09:07:26.324Z,1007.07
2017-06-12T09:08:26.319Z,1006.99
2017-06-12T09:09:26.314Z,1006.98
2017-06-12T09:10:26.310Z,1007.02
2017-06-12T09:11:26.304Z,1007.12
2017-06-12T09:12:26.299Z,1007.05
2017-06-12T09:13:26.291Z,1007.09
2017-06-12T09:14:26.287Z,1007.12
2017-06-12T09:15:26.283Z,1007.13
2017-06-12T09:16:26.355Z,1007.09
2017-06-12T09:17:26.270Z,1007.13
2017-06-12T09:18:26.263Z,1007.08
2017-06-12T09:19:26.258Z,1007.12
2017-06-12T09:20:26.254Z,1007.18
2017-06-12T09:21:26.245Z,1007.79
2017-06-12T09:22:26.238Z,1007.15
2017-06-12T09:23:26.235Z,1007.18
2017-06-12T09:24:26.225Z,1007.2
2017-06-12T09:25:26.220Z,1007.21
2017-06-12T09:26:26.214Z,1007.23
2017-06-12T09:27:26.206Z,1007.83
2017-06-12T09:28:26.199Z,1007.97
2017-06-12T09:29:26.194Z,1007.89
2017-06-12T09:30:26.210Z,1007.4
2017-06-12T09:31:26.183Z,1007.55
2017-06-12T09:32:26.187Z,1007.2
2017-06-12T09:33:26.176Z,1007.37
2017-06-12T09:34:26.169Z,1007.17
2017-06-12T09:35:26.187Z,1007.17
2017-06-12T09:36:26.163Z,1007.28
2017-06-12T09:37:26.156Z,1007.24
2017-06-12T09:38:26.151Z,1007.25
2017-06-12T09:39:26.145Z,1007.28
2017-06-12T09:40:26.144Z,1007.29
2017-06-12T09:41:26.136Z,1007.28
2017-06-12T09:42:26.130Z,1007.88
2017-06-12T09:43:26.123Z,1007.33
2017-06-12T09:44:26.120Z,1007.94
2017-06-12T09:45:26.114Z,1008
2017-06-12T09:46:26.314Z,1008.07
2017-06-12T09:47:26.109Z,1008.05
2017-06-12T09:48:26.106Z,1008.03
2017-06-12T09:49:26.098Z,1008.03
2017-06-12T09:50:26.096Z,1008.03
2017-06-12T09:51:26.092Z,1008.01
2017-06-12T09:52:26.093Z,1008
2017-06-12T09:53:26.088Z,1007.93
2017-06-12T09:54:26.086Z,1008.04
2017-06-12T09:55:26.083Z,1008.01
2017-06-12T09:56:26.083Z,1007.81
2017-06-12T09:57:26.079Z,1008
2017-06-12T09:58:26.080Z,1007.56
2017-06-12T09:59:26.082Z,1008.04
2017-06-12T10:00:26.076Z,1007.93
2017-06-12T10:01:26.075Z,1007.41
2017-06-12T10:02:26.075Z,1008.09
2017-06-12T10:03:26.073Z,1007.84
2017-06-12T10:04:26.074Z,1008.21
2017-06-12T10:05:26.074Z,1008.16
2017-06-12T10:06:26.073Z,1008.21
2017-06-12T10:07:26.071Z,1008.24
2017-06-12T10:08:26.076Z,1007.71
2017-06-12T10:09:26.073Z,1007.56
2017-06-12T10:10:26.076Z,1007.46
2017-06-12T10:11:26.071Z,1007.49
2017-06-12T10:12:26.071Z,1007.66
2017-06-12T10:13:26.119Z,1007.61
2017-06-12T10:14:26.067Z,1007.56
2017-06-12T10:15:26.068Z,1007.52
2017-06-12T10:16:26.065Z,1007.52
2017-06-12T10:17:26.063Z,1007.48
2017-06-12T10:18:26.059Z,1007.44
2017-06-12T10:19:26.058Z,1007.43
2017-06-12T10:20:26.055Z,1007.46
2017-06-12T10:21:26.057Z,1007.48
2017-06-12T10:22:26.049Z,1007.45
2017-06-12T10:23:26.046Z,1007.51
2017-06-12T10:24:26.042Z,1007.51
2017-06-12T10:25:26.041Z,1007.54
2017-06-12T10:26:26.034Z,1007.64
2017-06-12T10:27:26.030Z,1007.51
2017-06-12T10:28:26.026Z,1007.53
2017-06-12T10:29:26.022Z,1007.7
2017-06-12T10:30:26.016Z,1007.66
2017-06-12T10:31:26.015Z,1007.96
2017-06-12T10:32:26.008Z,1007.81
2017-06-12T10:33:26.003Z,1007.62
2017-06-12T10:34:26.001Z,1007.5
2017-06-12T10:35:25.997Z,1007.48
2017-06-12T10:36:25.992Z,1007.57
2017-06-12T10:37:25.986Z,1007.55
2017-06-12T10:38:25.984Z,1007.59
2017-06-12T10:39:25.978Z,1007.57
2017-06-12T10:40:25.972Z,1007.68
2017-06-12T10:41:25.966Z,1007.63
2017-06-12T10:42:25.964Z,1007.58
2017-06-12T10:43:25.960Z,1007.71
2017-06-12T10:44:25.951Z,1007.59
2017-06-12T10:45:25.947Z,1007.63
2017-06-12T10:46:25.942Z,1007.71
2017-06-12T10:47:25.938Z,1007.69
2017-06-12T10:48:25.930Z,1007.67
2017-06-12T10:49:25.924Z,1007.63
2017-06-12T10:50:25.918Z,1007.68
2017-06-12T10:51:25.913Z,1007.66
2017-06-12T10:52:25.907Z,1007.71
2017-06-12T10:53:25.902Z,1007.68
2017-06-12T10:54:25.894Z,1007.72
2017-06-12T10:55:25.887Z,1007.77
2017-06-12T10:56:25.881Z,1007.79
2017-06-12T10:57:25.874Z,1007.85
2017-06-12T10:58:25.867Z,1007.91
2017-06-12T10:59:25.861Z,1007.86
2017-06-12T11:00:25.854Z,1007.88
2017-06-12T11:01:25.847Z,1007.88
2017-06-12T11:02:25.842Z,1007.8
2017-06-12T11:03:25.833Z,1007.84
2017-06-12T11:04:25.877Z,1007.89
2017-06-12T11:05:25.819Z,1007.9
2017-06-12T11:06:25.816Z,1007.86
2017-06-12T11:07:25.804Z,1007.9
2017-06-12T11:08:25.798Z,1007.84
2017-06-12T11:09:25.839Z,1007.89
2017-06-12T11:10:25.783Z,1007.9
2017-06-12T11:11:25.775Z,1007.87
2017-06-12T11:12:25.768Z,1007.91
2017-06-12T11:13:25.758Z,1007.87
2017-06-12T11:14:25.751Z,1007.88
2017-06-12T11:15:25.747Z,1007.9
2017-06-12T11:16:25.735Z,1007.93
2017-06-12T11:17:25.729Z,1007.86
2017-06-12T11:18:25.722Z,1007.93
2017-06-12T11:19:25.916Z,1007.87
2017-06-12T11:20:25.703Z,1007.94
2017-06-12T11:21:25.699Z,1007.96
2017-06-12T11:22:25.691Z,1007.96
2017-06-12T11:23:25.681Z,1007.92
2017-06-12T11:24:25.673Z,1007.97
2017-06-12T11:25:25.664Z,1007.9
2017-06-12T11:26:25.657Z,1007.96
2017-06-12T11:27:25.647Z,1007.96
2017-06-12T11:28:25.639Z,1007.92
2017-06-12T11:29:25.659Z,1007.98
2017-06-12T11:30:25.626Z,1007.96
2017-06-12T11:31:25.618Z,1007.99
2017-06-12T11:32:25.608Z,1007.99
2017-06-12T11:33:25.600Z,1007.94
2017-06-12T11:34:25.592Z,1007.95
2017-06-12T11:35:25.593Z,1008
2017-06-12T11:36:25.577Z,1008.01
2017-06-12T11:37:25.569Z,1007.93
2017-06-12T11:38:25.561Z,1007.9
2017-06-12T11:39:25.551Z,1007.96
2017-06-12T11:40:25.544Z,1007.97
2017-06-12T11:41:25.540Z,1007.97
2017-06-12T11:42:25.532Z,1007.94
2017-06-12T11:43:25.520Z,1007.97
2017-06-12T11:44:25.514Z,1007.96
2017-06-12T11:45:25.506Z,1007.99
2017-06-12T11:46:25.498Z,1007.97
2017-06-12T11:47:25.490Z,1007.99
2017-06-12T11:48:25.482Z,1008.03
2017-06-12T11:49:25.476Z,1008.07
2017-06-12T11:50:25.467Z,1008.01
2017-06-12T11:51:25.461Z,1008.03
2017-06-12T11:52:25.451Z,1007.96
2017-06-12T11:53:25.446Z,1007.93
2017-06-12T11:54:25.438Z,1007.95
2017-06-12T11:55:25.436Z,1007.94
2017-06-12T11:56:25.424Z,1007.95
2017-06-12T11:57:25.414Z,1007.93
2017-06-12T11:58:25.410Z,1007.97
2017-06-12T11:59:25.403Z,1007.98
2017-06-12T12:00:25.394Z,1008.03
2017-06-12T12:01:25.388Z,1008.05
2017-06-12T12:02:25.379Z,1008.06
2017-06-12T12:03:25.372Z,1008.07
2017-06-12T12:04:25.364Z,1008.05
2017-06-12T12:05:25.356Z,1008.05
2017-06-12T12:06:25.350Z,1008.05
2017-06-12T12:07:25.343Z,1008.05